createdAt,value
2018-09-04T00:00:28.294Z,16.66
2018-09-04T00:02:57.545Z,16.49
2018-09-04T00:05:26.806Z,16.37
2018-09-04T00:07:55.444Z,16.39
2018-09-04T00:10:24.265Z,16.36
2018-09-04T00:12:53.531Z,16.31
2018-09-04T00:15:22.163Z,16.29
2018-09-04T00:17:50.822Z,16.11
2018-09-04T00:20:19.449Z,16.10
2018-09-04T00:22:48.990Z,15.94
2018-09-04T00:25:17.597Z,16.01
2018-09-04T00:27:46.217Z,16.01
2018-09-04T00:30:15.394Z,15.97
2018-09-04T00:32:43.875Z,15.97
2018-09-04T00:35:12.503Z,15.90
2018-09-04T00:37:41.093Z,15.66
2018-09-04T00:40:09.844Z,15.88
2018-09-04T00:42:38.875Z,15.84
2018-09-04T00:45:07.629Z,15.86
2018-09-04T00:47:36.200Z,15.79
2018-09-04T00:50:05.282Z,15.82
2018-09-04T00:52:34.401Z,15.78
2018-09-04T00:55:04.372Z,15.74
2018-09-04T00:57:32.993Z,15.71
2018-09-04T01:00:01.547Z,15.77
2018-09-04T01:02:31.077Z,15.75
2018-09-04T01:05:00.370Z,15.69
2018-09-04T01:07:30.400Z,15.71
2018-09-04T01:09:59.081Z,15.72
2018-09-04T01:12:27.606Z,15.71
2018-09-04T01:14:57.462Z,15.70
2018-09-04T01:17:26.863Z,15.67
2018-09-04T01:19:55.379Z,15.74
2018-09-04T01:22:23.957Z,15.79
2018-09-04T01:24:52.467Z,15.74
2018-09-04T01:27:21.610Z,15.74
2018-09-04T01:29:50.295Z,15.74
2018-09-04T01:32:19.143Z,15.65
2018-09-04T01:34:48.284Z,15.56
2018-09-04T01:37:17.051Z,15.48
2018-09-04T01:39:46.159Z,15.49
2018-09-04T01:42:14.846Z,15.51
2018-09-04T01:44:43.531Z,15.46
2018-09-04T01:47:13.262Z,15.48
2018-09-04T01:49:42.528Z,15.39
2018-09-04T01:52:11.114Z,15.38
2018-09-04T01:54:39.759Z,15.40
2018-09-04T01:57:08.908Z,15.36
2018-09-04T01:59:37.487Z,15.32
2018-09-04T02:02:06.363Z,15.28
2018-09-04T02:04:35.033Z,15.15
2018-09-04T02:07:04.034Z,14.89
2018-09-04T02:09:33.274Z,15.13
2018-09-04T02:12:01.986Z,15.05
2018-09-04T02:14:30.652Z,15.01
2018-09-04T02:16:59.255Z,14.97
2018-09-04T02:19:28.503Z,14.73
2018-09-04T02:21:57.068Z,14.80
2018-09-04T02:24:25.727Z,14.88
2018-09-04T02:26:54.356Z,14.65
2018-09-04T02:29:22.990Z,14.53
2018-09-04T02:31:51.650Z,14.49
2018-09-04T02:34:20.996Z,14.52
2018-09-04T02:36:49.579Z,14.43
2018-09-04T02:39:18.881Z,14.51
2018-09-04T02:41:47.496Z,14.49
2018-09-04T02:44:16.150Z,14.43
2018-09-04T02:46:44.711Z,14.58
2018-09-04T02:49:13.337Z,14.49
2018-09-04T02:51:41.879Z,14.44
2018-09-04T02:54:10.661Z,14.34
2018-09-04T02:56:40.515Z,14.32
2018-09-04T02:59:09.411Z,12.88
2018-09-04T03:01:39.796Z,14.30
2018-09-04T03:04:08.571Z,14.28
2018-09-04T03:06:37.119Z,14.35
2018-09-04T03:09:07.372Z,14.40
2018-09-04T03:11:35.862Z,14.35
2018-09-04T03:14:05.571Z,14.36
2018-09-04T03:16:34.481Z,14.32
2018-09-04T03:19:03.843Z,14.32
2018-09-04T03:21:33.736Z,14.17
2018-09-04T03:24:02.329Z,14.14
2018-09-04T03:26:30.887Z,14.14
2018-09-04T03:28:59.441Z,14.17
2018-09-04T03:31:28.778Z,14.16
2018-09-04T03:33:57.320Z,13.92
2018-09-04T03:36:25.944Z,13.89
2018-09-04T03:38:54.608Z,13.96
2018-09-04T03:41:24.128Z,13.92
2018-09-04T03:43:52.629Z,14.01
2018-09-04T03:46:21.267Z,14.02
2018-09-04T03:48:50.222Z,13.87
2018-09-04T03:51:18.842Z,13.78
2018-09-04T03:53:47.365Z,13.82
2018-09-04T03:56:16.218Z,13.88
2018-09-04T03:58:45.446Z,13.88
2018-09-04T04:01:15.519Z,13.90
2018-09-04T04:03:44.042Z,13.94
2018-09-04T04:06:12.831Z,13.80
2018-09-04T04:08:41.394Z,13.70
2018-09-04T04:11:09.986Z,13.73
2018-09-04T04:13:38.542Z,13.73
2018-09-04T04:16:07.109Z,13.80
2018-09-04T04:18:35.874Z,13.82
2018-09-04T04:21:04.391Z,13.87
2018-09-04T04:23:32.950Z,13.98
2018-09-04T04:26:02.789Z,14.01
2018-09-04T04:28:31.335Z,14.06
2018-09-04T04:31:00.934Z,14.19
2018-09-04T04:33:29.579Z,14.19
2018-09-04T04:35:59.565Z,14.11
2018-09-04T04:38:28.216Z,14.00
2018-09-04T04:40:56.747Z,14.13
2018-09-04T04:43:25.219Z,14.25
2018-09-04T04:45:54.594Z,14.29
2018-09-04T04:48:23.971Z,14.25
2018-09-04T04:50:52.412Z,14.24
2018-09-04T04:53:20.924Z,14.24
2018-09-04T04:55:50.154Z,14.09
2018-09-04T04:58:18.612Z,14.27
2018-09-04T05:00:47.313Z,13.35
2018-09-04T05:03:15.855Z,14.49
2018-09-04T05:05:44.400Z,14.41
2018-09-04T05:08:12.918Z,14.57
2018-09-04T05:10:42.713Z,14.62
2018-09-04T05:13:12.189Z,14.67
2018-09-04T05:15:41.577Z,14.55
2018-09-04T05:18:10.918Z,14.77
2018-09-04T05:20:39.668Z,14.78
2018-09-04T05:23:08.336Z,14.69
2018-09-04T05:25:36.919Z,14.78
2018-09-04T05:28:06.684Z,14.72
2018-09-04T05:30:35.234Z,14.67
2018-09-04T05:33:08.748Z,14.83
2018-09-04T05:35:43.929Z,14.98
2018-09-04T05:38:13.101Z,15.15
2018-09-04T05:40:43.483Z,14.96
2018-09-04T05:43:15.340Z,14.99
2018-09-04T05:45:43.984Z,14.98
2018-09-04T05:48:14.479Z,15.19
2018-09-04T05:50:43.732Z,15.15
2018-09-04T05:53:12.421Z,14.93
2018-09-04T05:55:42.001Z,15.10
2018-09-04T05:58:11.307Z,15.25
2018-09-04T06:00:44.151Z,14.99
2018-09-04T06:03:12.639Z,15.42
2018-09-04T06:05:41.204Z,15.61
2018-09-04T06:08:09.862Z,15.38
2018-09-04T06:10:39.848Z,15.61
2018-09-04T06:13:09.297Z,15.91
2018-09-04T06:15:37.765Z,16.18
2018-09-04T06:18:06.804Z,16.30
2018-09-04T06:20:35.442Z,15.96
2018-09-04T06:23:04.681Z,15.73
2018-09-04T06:25:33.438Z,15.86
2018-09-04T06:28:02.280Z,15.96
2018-09-04T06:30:31.625Z,15.94
2018-09-04T06:33:00.683Z,15.97
2018-09-04T06:35:29.882Z,15.82
2018-09-04T06:37:58.463Z,16.04
2018-09-04T06:40:27.050Z,16.10
2018-09-04T06:42:57.022Z,16.19
2018-09-04T06:45:25.990Z,16.15
2018-09-04T06:47:55.150Z,16.38
2018-09-04T06:50:23.635Z,17.02
2018-09-04T06:52:52.271Z,16.50
2018-09-04T06:55:20.823Z,16.96
2018-09-04T06:57:49.495Z,17.33
2018-09-04T07:00:17.972Z,17.71
2018-09-04T07:02:46.542Z,17.77
2018-09-04T07:05:15.073Z,18.04
2018-09-04T07:07:44.963Z,18.44
2018-09-04T07:10:14.142Z,18.93
2018-09-04T07:12:42.695Z,18.95
2018-09-04T07:15:11.391Z,19.02
2018-09-04T07:17:40.926Z,19.34
2018-09-04T07:20:09.469Z,19.14
2018-09-04T07:22:38.370Z,19.20
2018-09-04T07:25:06.949Z,18.90
2018-09-04T07:27:35.567Z,19.29
2018-09-04T07:30:04.133Z,19.23
2018-09-04T07:32:32.714Z,19.48
2018-09-04T07:35:01.315Z,19.45
2018-09-04T07:37:29.870Z,19.26
2018-09-04T07:39:58.626Z,18.72
2018-09-04T07:42:27.130Z,18.83
2018-09-04T07:44:55.719Z,18.38
2018-09-04T07:47:24.383Z,18.82
2018-09-04T07:49:53.017Z,19.34
2018-09-04T07:52:21.653Z,19.34
2018-09-04T07:54:50.246Z,19.04
2018-09-04T07:57:18.896Z,19.96
2018-09-04T07:59:48.070Z,20.56
2018-09-04T08:02:16.801Z,20.70
2018-09-04T08:04:45.343Z,20.03
2018-09-04T08:07:13.917Z,20.78
2018-09-04T08:09:42.578Z,22.01
2018-09-04T08:12:11.167Z,22.46
2018-09-04T08:14:41.118Z,23.13
2018-09-04T08:17:11.520Z,23.03
2018-09-04T08:19:40.874Z,22.80
2018-09-04T08:22:10.848Z,23.11
2018-09-04T08:24:39.913Z,23.75
2018-09-04T08:27:09.825Z,23.43
2018-09-04T08:29:38.529Z,24.37
2018-09-04T08:32:07.214Z,25.31
2018-09-04T08:34:35.822Z,25.46
2018-09-04T08:37:04.428Z,25.68
2018-09-04T08:39:33.022Z,25.85
2018-09-04T08:42:01.813Z,26.06
2018-09-04T08:44:31.315Z,24.64
2018-09-04T08:46:59.953Z,25.82
2018-09-04T08:49:28.443Z,25.75
2018-09-04T08:51:58.973Z,26.31
2018-09-04T08:54:27.582Z,26.07
2018-09-04T08:56:59.218Z,25.69
2018-09-04T08:59:28.943Z,24.77
2018-09-04T09:01:57.514Z,25.35
2018-09-04T09:04:26.826Z,24.43
2018-09-04T09:06:55.949Z,24.98
2018-09-04T09:09:25.294Z,24.08
2018-09-04T09:11:53.826Z,23.60
2018-09-04T09:14:22.389Z,24.36
2018-09-04T09:16:51.656Z,25.68
2018-09-04T09:19:21.057Z,26.65
2018-09-04T09:21:50.197Z,27.22
2018-09-04T09:24:18.741Z,26.20
2018-09-04T09:26:47.932Z,27.19
2018-09-04T09:29:16.463Z,28.05
2018-09-04T09:31:44.988Z,27.96
2018-09-04T09:34:13.572Z,27.02
2018-09-04T09:36:42.386Z,26.22
2018-09-04T09:39:11.482Z,25.36
2018-09-04T09:41:40.971Z,25.56
2018-09-04T09:44:10.799Z,26.13
2018-09-04T09:46:40.310Z,25.48
2018-09-04T09:49:08.956Z,24.61
2018-09-04T09:51:37.644Z,24.40
2018-09-04T09:54:06.639Z,24.18
2018-09-04T09:56:35.506Z,23.91
2018-09-04T09:59:05.855Z,23.93
2018-09-04T10:01:39.872Z,24.01
2018-09-04T10:04:09.084Z,23.67
2018-09-04T10:06:38.491Z,24.42
2018-09-04T10:09:08.224Z,24.80
2018-09-04T10:11:36.833Z,24.89
2018-09-04T10:14:05.455Z,25.32
2018-09-04T10:16:34.410Z,25.31
2018-09-04T10:19:02.999Z,26.52
2018-09-04T10:21:32.079Z,25.99
2018-09-04T10:24:01.301Z,24.94
2018-09-04T10:26:30.050Z,24.41
2018-09-04T10:28:59.297Z,24.96
2018-09-04T10:31:27.858Z,24.33
2018-09-04T10:33:56.332Z,23.65
2018-09-04T10:36:24.890Z,23.64
2018-09-04T10:38:58.622Z,23.59
2018-09-04T10:41:27.219Z,25.08
2018-09-04T10:43:57.716Z,25.35
2018-09-04T10:46:26.964Z,25.44
2018-09-04T10:48:55.579Z,24.91
2018-09-04T10:51:24.143Z,24.09
2018-09-04T10:53:53.224Z,24.26
2018-09-04T10:56:21.811Z,24.00
2018-09-04T10:58:51.206Z,24.10
2018-09-04T11:01:19.758Z,24.68
2018-09-04T11:03:48.326Z,24.58
2018-09-04T11:06:16.871Z,24.72
2018-09-04T11:08:46.262Z,24.74
2018-09-04T11:11:14.838Z,25.21
2018-09-04T11:13:44.200Z,26.32
2018-09-04T11:16:13.702Z,26.72
2018-09-04T11:18:42.283Z,26.35
2018-09-04T11:21:11.683Z,26.98
2018-09-04T11:23:40.299Z,25.91
2018-09-04T11:26:09.773Z,25.97
2018-09-04T11:28:42.015Z,27.04
2018-09-04T11:31:10.563Z,27.12
2018-09-04T11:33:39.690Z,26.79
2018-09-04T11:36:08.295Z,27.16
2018-09-04T11:38:36.769Z,27.82
2018-09-04T11:41:06.053Z,25.92
2018-09-04T11:43:36.564Z,26.59
2018-09-04T11:46:06.075Z,26.42
2018-09-04T11:48:38.742Z,27.05
2018-09-04T11:51:09.551Z,26.72
2018-09-04T11:53:38.238Z,26.82
2018-09-04T11:56:07.529Z,26.78
2018-09-04T11:58:36.504Z,27.64
2018-09-04T12:01:09.426Z,29.03
2018-09-04T12:03:37.960Z,26.07
2018-09-04T12:06:07.199Z,26.14
2018-09-04T12:08:36.066Z,28.14
2018-09-04T12:11:05.373Z,27.72
2018-09-04T12:13:34.761Z,27.02
2018-09-04T12:16:03.735Z,27.88
2018-09-04T12:18:32.245Z,27.28
2018-09-04T12:21:06.808Z,27.31
2018-09-04T12:23:35.482Z,26.98
2018-09-04T12:26:06.002Z,27.04
2018-09-04T12:28:35.236Z,27.13
2018-09-04T12:31:04.103Z,26.89
2018-09-04T12:33:32.638Z,27.65
2018-09-04T12:36:01.836Z,27.54
2018-09-04T12:38:32.910Z,27.34
2018-09-04T12:41:06.323Z,27.85
2018-09-04T12:43:34.884Z,28.37
2018-09-04T12:46:03.699Z,29.08
2018-09-04T12:48:32.640Z,28.36
2018-09-04T12:51:02.182Z,29.49
2018-09-04T12:53:31.613Z,29.41
2018-09-04T12:56:00.820Z,29.45
2018-09-04T12:58:29.453Z,28.82
2018-09-04T13:00:58.679Z,29.28
2018-09-04T13:03:28.390Z,29.37
2018-09-04T13:05:56.983Z,29.99
2018-09-04T13:08:26.934Z,30.11
2018-09-04T13:10:55.511Z,29.90
2018-09-04T13:13:24.728Z,30.72
2018-09-04T13:15:55.284Z,30.78
2018-09-04T13:18:24.215Z,28.98
2018-09-04T13:20:54.711Z,28.28
2018-09-04T13:23:23.346Z,27.40
2018-09-04T13:25:51.868Z,28.90
2018-09-04T13:28:20.533Z,28.25
2018-09-04T13:30:50.073Z,29.13
2018-09-04T13:33:19.247Z,28.08
2018-09-04T13:35:47.838Z,27.97
2018-09-04T13:38:16.430Z,28.55
2018-09-04T13:40:45.057Z,28.39
2018-09-04T13:43:15.685Z,29.19
2018-09-04T13:45:45.238Z,27.37
2018-09-04T13:48:13.934Z,27.14
2018-09-04T13:50:43.017Z,27.36
2018-09-04T13:53:11.689Z,26.79
2018-09-04T13:55:40.371Z,27.21
2018-09-04T13:58:08.956Z,27.38
2018-09-04T14:00:37.492Z,27.53
2018-09-04T14:03:06.239Z,27.68
2018-09-04T14:05:34.793Z,27.74
2018-09-04T14:08:03.391Z,27.49
2018-09-04T14:10:31.987Z,27.50
2018-09-04T14:13:00.601Z,27.56
2018-09-04T14:15:29.260Z,27.51
2018-09-04T14:17:59.606Z,27.29
2018-09-04T14:20:28.156Z,27.15
2018-09-04T14:22:56.849Z,27.29
2018-09-04T14:25:26.306Z,26.98
2018-09-04T14:27:54.887Z,26.93
2018-09-04T14:30:23.664Z,26.96
2018-09-04T14:32:53.299Z,26.90
2018-09-04T14:35:22.541Z,26.64
2018-09-04T14:37:51.220Z,26.94
2018-09-04T14:40:20.043Z,26.25
2018-09-04T14:42:48.707Z,26.63
2018-09-04T14:45:17.301Z,26.08
2018-09-04T14:47:45.942Z,26.16
2018-09-04T14:50:14.437Z,26.15
2018-09-04T14:52:43.127Z,26.32
2018-09-04T14:55:11.750Z,26.59
2018-09-04T14:57:40.429Z,26.23
2018-09-04T15:00:08.966Z,26.03
2018-09-04T15:02:37.859Z,26.07
2018-09-04T15:05:06.423Z,25.94
2018-09-04T15:07:37.037Z,26.03
2018-09-04T15:10:06.486Z,25.66
2018-09-04T15:12:35.041Z,25.83
2018-09-04T15:15:03.621Z,25.86
2018-09-04T15:17:32.715Z,26.13
2018-09-04T15:20:01.927Z,25.99
2018-09-04T15:22:30.447Z,26.16
2018-09-04T15:24:59.011Z,26.22
2018-09-04T15:27:27.602Z,26.34
2018-09-04T15:29:56.155Z,26.46
2018-09-04T15:32:25.049Z,26.66
2018-09-04T15:34:53.570Z,26.63
2018-09-04T15:37:22.561Z,26.58
2018-09-04T15:39:51.076Z,26.72
2018-09-04T15:42:20.544Z,26.50
2018-09-04T15:44:49.231Z,26.60
2018-09-04T15:47:17.782Z,26.61
2018-09-04T15:49:47.231Z,26.49
2018-09-04T15:52:16.823Z,26.36
2018-09-04T15:54:45.593Z,26.28
2018-09-04T15:57:14.641Z,26.46
2018-09-04T15:59:43.420Z,25.86
2018-09-04T16:02:11.836Z,26.19
2018-09-04T16:04:40.547Z,26.06
2018-09-04T16:07:09.034Z,26.00
2018-09-04T16:09:37.734Z,26.10
2018-09-04T16:12:07.102Z,25.89
2018-09-04T16:14:35.711Z,25.66
2018-09-04T16:17:04.348Z,25.43
2018-09-04T16:19:34.134Z,25.45
2018-09-04T16:22:02.600Z,25.26
2018-09-04T16:24:31.166Z,25.44
2018-09-04T16:26:59.758Z,25.39
2018-09-04T16:29:29.367Z,25.10
2018-09-04T16:31:57.918Z,24.84
2018-09-04T16:34:26.579Z,24.63
2018-09-04T16:36:55.205Z,24.24
2018-09-04T16:39:23.820Z,24.60
2018-09-04T16:41:52.473Z,24.56
2018-09-04T16:44:22.041Z,24.59
2018-09-04T16:46:50.587Z,24.51
2018-09-04T16:49:23.760Z,24.47
2018-09-04T16:51:52.836Z,24.41
2018-09-04T16:54:22.482Z,24.29
2018-09-04T16:56:51.848Z,24.01
2018-09-04T16:59:20.517Z,23.94
2018-09-04T17:01:49.110Z,23.82
2018-09-04T17:04:18.169Z,23.75
2018-09-04T17:06:47.209Z,23.58
2018-09-04T17:09:15.878Z,23.58
2018-09-04T17:11:45.046Z,23.35
2018-09-04T17:14:13.710Z,23.20
2018-09-04T17:16:42.251Z,22.97
2018-09-04T17:19:11.467Z,22.82
2018-09-04T17:21:40.703Z,22.90
2018-09-04T17:24:09.236Z,22.85
2018-09-04T17:26:38.766Z,22.77
2018-09-04T17:29:07.330Z,22.69
2018-09-04T17:31:35.988Z,22.45
2018-09-04T17:34:05.578Z,22.44
2018-09-04T17:36:34.141Z,22.36
2018-09-04T17:39:02.792Z,22.35
2018-09-04T17:41:31.346Z,22.34
2018-09-04T17:43:59.953Z,22.18
2018-09-04T17:46:28.601Z,22.12
2018-09-04T17:48:57.716Z,22.16
2018-09-04T17:51:27.012Z,22.06
2018-09-04T17:53:55.587Z,21.70
2018-09-04T17:56:24.217Z,21.49
2018-09-04T17:58:53.021Z,21.43
2018-09-04T18:01:21.733Z,21.55
2018-09-04T18:03:50.811Z,21.33
2018-09-04T18:06:19.347Z,21.09
2018-09-04T18:08:48.005Z,21.06
2018-09-04T18:11:17.579Z,20.99
2018-09-04T18:13:46.021Z,20.92
2018-09-04T18:16:14.657Z,20.75
2018-09-04T18:18:43.154Z,20.73
2018-09-04T18:21:11.776Z,20.90
2018-09-04T18:23:40.310Z,20.66
2018-09-04T18:26:08.950Z,20.65
2018-09-04T18:28:42.433Z,20.56
2018-09-04T18:31:12.445Z,20.34
2018-09-04T18:33:41.768Z,20.07
2018-09-04T18:36:11.652Z,19.90
2018-09-04T18:38:40.838Z,19.85
2018-09-04T18:41:09.642Z,19.71
2018-09-04T18:43:38.229Z,19.68
2018-09-04T18:46:08.083Z,19.66
2018-09-04T18:48:37.221Z,19.62
2018-09-04T18:51:05.849Z,19.55
2018-09-04T18:53:34.354Z,19.40
2018-09-04T18:56:02.856Z,19.41
2018-09-04T18:58:31.397Z,19.28
2018-09-04T19:01:00.617Z,19.41
2018-09-04T19:03:29.807Z,19.26
2018-09-04T19:05:58.414Z,19.27
2018-09-04T19:08:26.946Z,19.16
2018-09-04T19:10:55.615Z,19.13
2018-09-04T19:13:24.706Z,19.20
2018-09-04T19:15:53.229Z,19.24
2018-09-04T19:18:21.786Z,19.11
2018-09-04T19:20:50.369Z,19.14
2018-09-04T19:23:18.928Z,19.10
2018-09-04T19:25:47.656Z,18.93
2018-09-04T19:28:17.124Z,19.00
2018-09-04T19:30:51.846Z,18.99
2018-09-04T19:33:21.218Z,18.74
2018-09-04T19:35:51.232Z,18.73
2018-09-04T19:38:19.907Z,18.73
2018-09-04T19:40:48.439Z,18.74
2018-09-04T19:43:17.738Z,18.74
2018-09-04T19:45:46.322Z,18.68
2018-09-04T19:48:14.782Z,18.56
2018-09-04T19:50:43.407Z,18.70
2018-09-04T19:53:11.918Z,18.71
2018-09-04T19:55:40.617Z,18.71
2018-09-04T19:58:09.591Z,18.69
2018-09-04T20:00:38.171Z,18.67
2018-09-04T20:03:06.731Z,18.62
2018-09-04T20:05:36.204Z,18.49
2018-09-04T20:08:04.753Z,18.40
2018-09-04T20:10:33.350Z,18.41
2018-09-04T20:13:02.002Z,18.47
2018-09-04T20:15:30.679Z,18.52
2018-09-04T20:17:59.876Z,18.55
2018-09-04T20:20:28.349Z,18.59
2018-09-04T20:22:59.624Z,18.54
2018-09-04T20:25:28.907Z,18.61
2018-09-04T20:27:57.714Z,18.57
2018-09-04T20:30:26.306Z,18.57
2018-09-04T20:33:25.655Z,18.61
2018-09-04T20:35:54.213Z,18.63
2018-09-04T20:38:22.785Z,18.61
2018-09-04T20:40:51.373Z,18.61
2018-09-04T20:43:19.917Z,18.62
2018-09-04T20:45:49.290Z,18.68
2018-09-04T20:48:17.898Z,18.71
2018-09-04T20:50:46.483Z,18.73
2018-09-04T20:53:14.950Z,18.75
2018-09-04T20:55:43.630Z,18.56
2018-09-04T20:58:23.187Z,18.58
2018-09-04T21:01:02.957Z,18.58
2018-09-04T21:03:42.598Z,18.48
2018-09-04T21:06:23.994Z,18.36
2018-09-04T21:08:59.206Z,18.36
2018-09-04T21:11:28.175Z,18.41
2018-09-04T21:13:57.674Z,18.39
2018-09-04T21:16:26.270Z,18.16
2018-09-04T21:18:54.775Z,18.11
2018-09-04T21:21:23.384Z,18.23
2018-09-04T21:23:51.929Z,18.24
2018-09-04T21:26:20.652Z,18.30
2018-09-04T21:28:49.241Z,18.41
2018-09-04T21:31:18.687Z,18.27
2018-09-04T21:33:48.046Z,18.41
2018-09-04T21:36:16.525Z,18.36
2018-09-04T21:38:45.880Z,18.37
2018-09-04T21:42:38.807Z,18.42
2018-09-04T21:45:07.327Z,18.49
2018-09-04T21:47:36.176Z,18.42
2018-09-04T21:50:05.283Z,18.14
2018-09-04T21:52:33.930Z,18.23
2018-09-04T21:55:02.458Z,18.07
2018-09-04T21:57:30.986Z,18.21
2018-09-04T21:59:59.512Z,18.18
2018-09-04T22:02:28.195Z,18.00
2018-09-04T22:04:56.971Z,18.15
2018-09-04T22:07:58.154Z,18.07
2018-09-04T22:10:27.602Z,18.14
2018-09-04T22:12:56.439Z,18.15
2018-09-04T22:15:26.264Z,18.15
2018-09-04T22:17:54.887Z,17.99
2018-09-04T22:20:23.601Z,17.71
2018-09-04T22:22:52.124Z,17.79
2018-09-04T22:25:20.640Z,17.85
2018-09-04T22:27:49.236Z,17.83
2018-09-04T22:30:18.447Z,17.80
2018-09-04T22:32:47.066Z,17.76
2018-09-04T22:35:15.546Z,17.68
2018-09-04T22:37:44.174Z,17.63
2018-09-04T22:40:12.879Z,17.64
2018-09-04T22:42:41.889Z,17.61
2018-09-04T22:45:10.764Z,17.54
2018-09-04T22:47:40.561Z,17.38
2018-09-04T22:50:15.156Z,17.39
2018-09-04T22:52:43.739Z,17.38
2018-09-04T22:55:14.094Z,17.25
2018-09-04T22:57:43.416Z,17.16
2018-09-04T23:00:12.950Z,17.14
2018-09-04T23:02:41.475Z,17.11
2018-09-04T23:05:10.010Z,17.12
2018-09-04T23:07:38.530Z,17.08
2018-09-04T23:10:07.037Z,16.97
2018-09-04T23:12:35.626Z,16.92
2018-09-04T23:15:04.725Z,16.61
2018-09-04T23:17:33.206Z,16.82
2018-09-04T23:20:01.768Z,16.73
2018-09-04T23:22:30.370Z,16.72
2018-09-04T23:24:58.994Z,16.72
2018-09-04T23:27:27.423Z,16.71
2018-09-04T23:29:55.890Z,16.75
2018-09-04T23:32:25.051Z,16.67
2018-09-04T23:34:53.631Z,16.58
2018-09-04T23:37:22.149Z,16.57
2018-09-04T23:39:51.361Z,16.57
2018-09-04T23:42:19.867Z,16.54
2018-09-04T23:44:49.116Z,16.49
2018-09-04T23:47:18.210Z,16.45
2018-09-04T23:49:46.781Z,16.41
2018-09-04T23:52:15.352Z,16.34
2018-09-04T23:54:43.953Z,16.32
2018-09-04T23:57:13.004Z,16.25
2018-09-04T23:59:41.667Z,16.14
